Laurel Springs, New Jersey
Current Conditions -  °F | °C
As of 12:54 PM on Friday 21 Nov 2014 (Local Time) from KVAY Reporting Station
Clear Clear  
Wind Chill: 27°   Ceiling: Unl
Heat Index: 35°   Visibility: 10mi
Dew Point:   Wind: 10mph
Humidity: 33%   Direction: 310°NW
Pressure: 30.36"   Gusts: 20mph
Location:  39.8055°N, 74.9997°W
Report Text: KVAY 211754Z AUTO 31009G17KT 280V340 10SM CLR 02/M13 A3036 RMK AO2 SLP281 T00171133 10017 21022 51004
Loading
Personal Weather Stations






























Interactive Weather Map New forecast layout! Learn more

10-Day Weather Forecast

Advertisements
Track Severe Weather on mobile